createdAt,value
2018-07-22T06:09:58.840Z,21.01
2018-07-22T06:12:26.951Z,21.20
2018-07-22T06:14:55.064Z,21.24
2018-07-22T06:17:23.183Z,20.79
2018-07-22T06:19:51.300Z,20.09
2018-07-22T06:22:19.386Z,20.17
2018-07-22T06:24:47.488Z,20.14
2018-07-22T06:27:15.604Z,20.04
2018-07-22T06:29:43.696Z,20.34
2018-07-22T06:32:12.117Z,20.54
2018-07-22T06:34:40.408Z,20.96
2018-07-22T06:37:08.555Z,21.74
2018-07-22T06:39:36.664Z,22.69
2018-07-22T06:42:04.777Z,23.12
2018-07-22T06:44:32.921Z,22.84
2018-07-22T06:47:01.027Z,22.46
2018-07-22T06:49:29.114Z,21.71
2018-07-22T06:51:57.216Z,21.37
2018-07-22T06:54:25.338Z,21.19
2018-07-22T06:56:53.436Z,21.27
2018-07-22T06:59:22.739Z,21.15
2018-07-22T07:01:50.839Z,20.69
2018-07-22T07:04:18.933Z,20.62
2018-07-22T07:06:47.043Z,20.69
2018-07-22T07:09:15.180Z,20.80
2018-07-22T07:11:43.293Z,20.89
2018-07-22T07:14:11.650Z,20.75
2018-07-22T07:16:39.762Z,20.82
2018-07-22T07:19:07.859Z,20.82
2018-07-22T07:21:35.958Z,20.89
2018-07-22T07:24:04.090Z,20.65
2018-07-22T07:26:32.196Z,20.77
2018-07-22T07:29:00.313Z,21.02
2018-07-22T07:31:28.411Z,21.22
2018-07-22T07:33:56.541Z,21.33
2018-07-22T07:36:24.932Z,21.39
2018-07-22T07:38:53.936Z,21.27
2018-07-22T07:41:22.048Z,21.17
2018-07-22T07:43:50.164Z,21.63
2018-07-22T07:46:18.262Z,21.62
2018-07-22T07:48:46.380Z,21.67
2018-07-22T07:51:14.481Z,21.97
2018-07-22T07:53:42.599Z,22.04
2018-07-22T07:56:10.700Z,22.17
2018-07-22T07:58:38.806Z,22.22
2018-07-22T08:01:06.903Z,22.04
2018-07-22T08:03:34.998Z,22.11
2018-07-22T08:06:03.105Z,22.30
2018-07-22T08:08:31.501Z,22.16
2018-07-22T08:10:59.607Z,21.95
2018-07-22T08:13:27.698Z,22.17
2018-07-22T08:15:56.436Z,22.41
2018-07-22T08:18:25.342Z,22.45
2018-07-22T08:20:53.684Z,22.23
2018-07-22T08:23:21.819Z,22.44
2018-07-22T08:25:50.004Z,22.50
2018-07-22T08:28:28.023Z,22.56
2018-07-22T08:30:56.133Z,22.65
2018-07-22T08:33:24.220Z,22.59
2018-07-22T08:35:52.312Z,22.70
2018-07-22T08:38:20.422Z,22.94
2018-07-22T08:40:48.519Z,22.95
2018-07-22T08:43:16.732Z,22.88
2018-07-22T08:45:44.831Z,22.92
2018-07-22T08:48:12.945Z,22.98
2018-07-22T08:50:41.035Z,23.05
2018-07-22T08:53:09.178Z,23.51
2018-07-22T08:55:37.237Z,23.54
2018-07-22T08:58:05.876Z,22.98
2018-07-22T09:00:34.214Z,22.65
2018-07-22T09:03:02.343Z,22.70
2018-07-22T09:05:30.443Z,22.87
2018-07-22T09:07:58.756Z,22.34
2018-07-22T09:10:27.460Z,22.84
2018-07-22T09:12:55.571Z,23.25
2018-07-22T09:15:23.678Z,23.00
2018-07-22T09:17:51.805Z,23.26
2018-07-22T09:20:20.216Z,23.49
2018-07-22T09:22:48.291Z,23.67
2018-07-22T09:25:16.400Z,23.39
2018-07-22T09:27:44.523Z,23.11
2018-07-22T09:30:12.632Z,23.34
2018-07-22T09:32:41.297Z,23.48
2018-07-22T09:35:09.403Z,23.42
2018-07-22T09:37:37.509Z,23.49
2018-07-22T09:40:05.647Z,23.60
2018-07-22T09:42:33.751Z,23.80
2018-07-22T09:45:01.864Z,23.76
2018-07-22T09:47:29.965Z,23.92
2018-07-22T09:49:58.415Z,23.88
2018-07-22T09:52:26.521Z,23.88
2018-07-22T09:54:54.619Z,24.27
2018-07-22T09:57:22.715Z,24.16
2018-07-22T09:59:50.838Z,24.10
2018-07-22T10:02:18.983Z,24.36
2018-07-22T10:04:47.143Z,24.11
2018-07-22T10:07:15.196Z,24.19
2018-07-22T10:09:43.376Z,24.47
2018-07-22T10:12:11.456Z,24.82
2018-07-22T10:14:39.637Z,25.06
2018-07-22T10:17:07.703Z,25.03
2018-07-22T10:19:35.785Z,25.09
2018-07-22T10:22:03.953Z,24.60
2018-07-22T10:24:32.184Z,24.82
2018-07-22T10:27:00.871Z,24.99
2018-07-22T10:29:28.963Z,24.85
2018-07-22T10:31:57.079Z,24.89
2018-07-22T10:34:25.183Z,24.99
2018-07-22T10:36:53.299Z,25.43
2018-07-22T10:39:21.412Z,25.84
2018-07-22T10:41:49.516Z,25.83
2018-07-22T10:44:17.654Z,25.62
2018-07-22T10:46:45.759Z,25.57
2018-07-22T10:49:13.864Z,25.45
2018-07-22T10:51:42.038Z,24.81
2018-07-22T10:54:10.478Z,24.96
2018-07-22T10:56:38.579Z,25.45
2018-07-22T10:59:06.692Z,25.57
2018-07-22T11:01:34.808Z,25.45
2018-07-22T11:04:02.933Z,25.36
2018-07-22T11:06:31.032Z,25.70
2018-07-22T11:08:59.140Z,25.11
2018-07-22T11:11:27.255Z,25.31
2018-07-22T11:13:55.335Z,25.59
2018-07-22T11:16:23.435Z,25.39
2018-07-22T11:18:51.527Z,25.68
2018-07-22T11:21:20.100Z,25.82
2018-07-22T11:23:48.788Z,25.41
2018-07-22T11:26:16.949Z,25.79
2018-07-22T11:28:45.077Z,25.96
2018-07-22T11:31:13.143Z,25.97
2018-07-22T11:33:41.259Z,25.92
2018-07-22T11:36:09.708Z,25.98
2018-07-22T11:38:37.779Z,25.64
2018-07-22T11:41:05.951Z,25.82
2018-07-22T11:43:34.494Z,26.14
2018-07-22T11:46:02.581Z,26.29
2018-07-22T11:48:30.693Z,25.59
2018-07-22T11:50:58.812Z,25.82
2018-07-22T11:53:26.908Z,26.01
2018-07-22T11:55:55.118Z,26.38
2018-07-22T11:58:23.177Z,26.63
2018-07-22T12:00:52.087Z,26.28
2018-07-22T12:03:20.602Z,26.53
2018-07-22T12:05:49.097Z,26.72
2018-07-22T12:08:17.262Z,26.76
2018-07-22T12:10:45.980Z,26.53
2018-07-22T12:13:14.148Z,27.24
2018-07-22T12:15:42.228Z,27.12
2018-07-22T12:18:10.338Z,26.96
2018-07-22T12:20:38.437Z,26.47
2018-07-22T12:23:06.583Z,26.04
2018-07-22T12:25:34.725Z,25.97
2018-07-22T12:28:02.894Z,26.16
2018-07-22T12:30:30.932Z,26.17
2018-07-22T12:32:59.060Z,26.61
2018-07-22T12:35:27.176Z,26.73
2018-07-22T12:37:55.394Z,26.72
2018-07-22T12:40:23.547Z,26.67
2018-07-22T12:42:51.640Z,26.63
2018-07-22T12:45:19.743Z,26.74
2018-07-22T12:47:47.860Z,26.41
2018-07-22T12:50:15.966Z,26.05
2018-07-22T12:52:44.375Z,25.94
2018-07-22T12:55:12.560Z,26.03
2018-07-22T12:57:40.735Z,26.30
2018-07-22T13:00:08.842Z,26.34
2018-07-22T13:02:37.228Z,25.85
2018-07-22T13:05:05.809Z,26.13
2018-07-22T13:07:33.891Z,25.90
2018-07-22T13:10:02.043Z,25.46
2018-07-22T13:12:30.122Z,23.96
2018-07-22T13:14:58.279Z,22.80
2018-07-22T14:42:49.644Z,18.89
2018-07-22T14:45:18.122Z,18.94
2018-07-22T14:47:46.236Z,19.06
2018-07-22T14:50:14.345Z,19.00
2018-07-22T14:52:42.508Z,19.06
2018-07-22T14:55:10.655Z,19.13
2018-07-22T14:57:38.816Z,19.09
2018-07-22T15:00:07.501Z,19.06
2018-07-22T15:02:35.613Z,18.98
2018-07-22T15:05:03.780Z,18.91
2018-07-22T15:07:32.134Z,18.94
2018-07-22T15:10:00.239Z,18.92
2018-07-22T15:12:28.352Z,18.99
2018-07-22T15:14:56.467Z,18.97
2018-07-22T15:17:24.576Z,18.97
2018-07-22T15:19:52.708Z,19.07
2018-07-22T15:22:21.655Z,19.13
2018-07-22T15:24:49.774Z,19.14
2018-07-22T15:27:18.077Z,19.28
2018-07-22T15:29:46.207Z,19.48
2018-07-22T15:32:14.336Z,19.58
2018-07-22T15:34:42.705Z,19.76
2018-07-22T15:37:12.081Z,19.89
2018-07-22T15:39:40.167Z,20.08
2018-07-22T15:42:08.295Z,20.21
2018-07-22T15:44:36.427Z,20.31
2018-07-22T15:47:04.577Z,20.31
2018-07-22T15:49:32.694Z,20.36
2018-07-22T15:52:00.806Z,20.52
2018-07-22T15:54:28.924Z,20.68
2018-07-22T15:56:57.067Z,20.79
2018-07-22T15:59:25.185Z,20.66
2018-07-22T16:01:53.304Z,20.47
2018-07-22T16:04:21.662Z,20.45
2018-07-22T16:06:49.792Z,20.61
2018-07-22T16:09:18.048Z,20.62
2018-07-22T16:11:46.163Z,20.52
2018-07-22T16:14:14.319Z,20.40
2018-07-22T16:16:42.821Z,20.16
2018-07-22T16:19:10.928Z,20.28
2018-07-22T16:21:39.072Z,20.15
2018-07-22T16:24:07.185Z,19.98
2018-07-22T16:26:35.291Z,19.83
2018-07-22T16:29:03.404Z,19.64
2018-07-22T16:31:31.517Z,19.56
2018-07-22T16:33:59.601Z,19.61
2018-07-22T16:42:34.129Z,19.20
2018-07-22T16:45:02.351Z,19.12
2018-07-22T16:47:30.756Z,19.11
2018-07-22T16:49:58.877Z,19.14
2018-07-22T16:52:27.776Z,19.12
2018-07-22T16:54:55.862Z,19.24
2018-07-22T16:57:24.991Z,19.24
2018-07-22T16:59:53.089Z,19.29
2018-07-22T17:02:21.191Z,19.32
2018-07-22T17:04:49.538Z,19.17
2018-07-22T17:07:18.234Z,19.20
2018-07-22T17:09:46.311Z,19.31
2018-07-22T17:12:14.752Z,19.37
2018-07-22T17:14:42.915Z,19.35
2018-07-22T17:17:13.038Z,19.28
2018-07-22T17:19:41.274Z,19.32
2018-07-22T17:22:09.443Z,19.41
2018-07-22T17:24:38.600Z,19.23
2018-07-22T17:27:06.677Z,19.28
2018-07-22T17:29:34.800Z,19.33
2018-07-22T17:34:55.679Z,19.44
2018-07-22T17:37:27.527Z,19.41
2018-07-22T17:39:58.767Z,19.55
2018-07-22T17:42:27.875Z,19.51
2018-07-22T17:44:56.973Z,19.36
2018-07-22T17:47:25.454Z,19.38
2018-07-22T17:49:53.884Z,19.30
2018-07-22T17:52:22.004Z,19.26
2018-07-22T17:54:50.156Z,19.13
2018-07-22T17:57:18.328Z,19.06
2018-07-22T17:59:46.734Z,18.99
2018-07-22T18:05:18.998Z,19.00
2018-07-22T18:07:47.170Z,19.04
2018-07-22T18:10:15.304Z,18.96
2018-07-22T18:12:43.406Z,18.90
2018-07-22T18:15:11.532Z,18.96
2018-07-22T18:17:39.921Z,19.02
2018-07-22T18:20:08.067Z,18.89
2018-07-22T18:22:36.171Z,18.89
2018-07-22T18:25:04.281Z,18.80
2018-07-22T18:27:33.361Z,18.64
2018-07-22T18:30:01.487Z,18.60
2018-07-22T18:32:29.580Z,18.52
2018-07-22T18:34:57.683Z,18.56
2018-07-22T18:37:25.831Z,18.57
2018-07-22T18:39:53.879Z,18.54
2018-07-22T18:42:21.991Z,18.57
2018-07-22T18:44:50.068Z,18.48
2018-07-22T18:47:18.260Z,18.47
2018-07-22T18:49:47.114Z,18.44
2018-07-22T18:52:15.164Z,18.46
2018-07-22T18:54:43.280Z,18.63
2018-07-22T18:57:11.913Z,18.64
2018-07-22T18:59:40.031Z,18.73
2018-07-22T19:02:08.135Z,18.77
2018-07-22T19:04:36.249Z,18.84
2018-07-22T19:07:04.364Z,18.88
2018-07-22T19:09:32.467Z,18.92
2018-07-22T19:12:00.561Z,18.87
2018-07-22T19:14:28.667Z,18.81
2018-07-22T19:16:56.772Z,18.84
2018-07-22T19:19:25.004Z,18.88
2018-07-22T19:21:53.118Z,18.94
2018-07-22T19:24:21.220Z,18.95
2018-07-22T19:26:49.303Z,18.88
2018-07-22T19:29:17.658Z,18.91
2018-07-22T19:31:45.759Z,18.82
2018-07-22T19:34:13.875Z,18.69
2018-07-22T19:36:41.979Z,18.65
2018-07-22T19:39:10.683Z,18.55
2018-07-22T19:41:38.978Z,18.62
2018-07-22T19:44:07.692Z,18.61
2018-07-22T19:46:35.804Z,18.68
2018-07-22T19:49:03.943Z,18.67
2018-07-22T19:51:32.051Z,18.71
2018-07-22T19:54:00.148Z,18.67
2018-07-22T19:56:28.263Z,18.60
2018-07-22T19:58:56.360Z,18.61
2018-07-22T20:01:24.489Z,18.42
2018-07-22T20:03:52.641Z,18.44
2018-07-22T20:06:20.835Z,18.46
2018-07-22T20:08:48.955Z,18.52
2018-07-22T20:11:17.098Z,18.62
2018-07-22T20:13:45.192Z,18.72
2018-07-22T20:16:13.299Z,18.79
2018-07-22T20:18:41.390Z,18.77
2018-07-22T20:21:09.504Z,18.70
2018-07-22T20:23:37.602Z,18.67
2018-07-22T20:26:05.768Z,18.43
2018-07-22T20:28:33.875Z,18.34
2018-07-22T20:31:01.999Z,18.33
2018-07-22T20:33:30.139Z,18.26
2018-07-22T20:35:58.256Z,18.17
2018-07-22T20:38:26.358Z,18.25
2018-07-22T20:40:54.451Z,18.39
2018-07-22T20:43:22.552Z,18.51
2018-07-22T20:45:57.347Z,18.53
2018-07-22T20:48:25.447Z,18.28
2018-07-22T20:50:53.558Z,18.26
2018-07-22T20:53:22.698Z,18.21
2018-07-22T20:55:50.808Z,18.15
2018-07-22T20:58:18.903Z,18.25
2018-07-22T21:00:47.016Z,18.14
2018-07-22T21:03:15.142Z,18.11
2018-07-22T21:05:43.573Z,18.08
2018-07-22T21:08:11.752Z,18.17
2018-07-22T21:10:40.420Z,18.28
2018-07-22T21:13:18.950Z,18.35
2018-07-22T21:15:47.132Z,18.42
2018-07-22T21:18:15.296Z,18.43
2018-07-22T21:20:43.433Z,18.36
2018-07-22T21:23:11.609Z,18.35
2018-07-22T21:25:39.710Z,18.41
2018-07-22T21:28:07.887Z,18.54
2018-07-22T21:30:35.992Z,18.54
2018-07-22T21:33:04.388Z,18.40
2018-07-22T21:35:32.509Z,18.22
2018-07-22T21:38:00.638Z,18.16
2018-07-22T21:40:28.765Z,18.09
2018-07-22T21:42:56.858Z,18.05
2018-07-22T21:45:24.956Z,18.07
2018-07-22T21:47:53.084Z,18.06
2018-07-22T21:50:21.835Z,17.94
2018-07-22T21:52:50.344Z,17.95
2018-07-22T21:55:18.647Z,17.90
2018-07-22T21:57:46.804Z,17.83
